createdAt,value
2018-08-28T00:31:06.418Z,23.9
2018-08-28T00:31:55.883Z,24
2018-08-28T00:32:45.085Z,23.9
2018-08-28T00:33:35.415Z,23.9
2018-08-28T00:34:25.786Z,23.9
2018-08-28T00:35:15.246Z,24
2018-08-28T00:36:06.053Z,24
2018-08-28T00:36:55.641Z,24
2018-08-28T00:37:46.300Z,23.9
2018-08-28T00:38:36.865Z,23.9
2018-08-28T00:39:26.422Z,23.9
2018-08-28T00:40:16.508Z,23.9
2018-08-28T00:41:07.170Z,23.9
2018-08-28T00:41:56.928Z,24
2018-08-28T00:42:46.365Z,24
2018-08-28T00:43:37.053Z,23.9
2018-08-28T00:44:27.115Z,23.9
2018-08-28T00:45:17.172Z,23.9
2018-08-28T00:46:07.469Z,23.9
2018-08-28T00:46:56.164Z,24
2018-08-28T00:47:47.075Z,23.9
2018-08-28T00:48:37.419Z,23.9
2018-08-28T00:49:27.484Z,24
2018-08-28T00:50:16.980Z,23.9
2018-08-28T00:51:07.583Z,24
2018-08-28T00:51:57.741Z,23.9
2018-08-28T00:52:47.494Z,23.9
2018-08-28T00:53:37.247Z,23.9
2018-08-28T00:54:28.155Z,23.9
2018-08-28T00:55:17.944Z,24
2018-08-28T00:56:07.687Z,23.9
2018-08-28T00:56:58.104Z,23.9
2018-08-28T00:57:47.273Z,23.9
2018-08-28T00:58:37.819Z,23.9
2018-08-28T00:59:27.717Z,23.9
2018-08-28T01:00:17.777Z,24
2018-08-28T01:01:08.676Z,24
2018-08-28T01:01:59.036Z,23.9
2018-08-28T01:02:48.251Z,24
2018-08-28T01:03:37.714Z,23.9
2018-08-28T01:04:28.410Z,23.9
2018-08-28T01:05:18.411Z,24
2018-08-28T01:06:08.538Z,23.9
2018-08-28T01:06:58.524Z,23.9
2018-08-28T01:07:48.033Z,23.9
2018-08-28T01:08:38.705Z,24
2018-08-28T01:09:28.467Z,24
2018-08-28T01:10:17.953Z,24
2018-08-28T01:11:08.578Z,23.9
2018-08-28T01:11:59.220Z,23.9
2018-08-28T01:13:38.482Z,23.9
2018-08-28T01:14:29.026Z,23.9
2018-08-28T01:15:19.490Z,24
2018-08-28T01:16:09.530Z,24
2018-08-28T01:17:00.353Z,24
2018-08-28T01:17:49.679Z,24
2018-08-28T01:18:39.452Z,24
2018-08-28T01:19:29.798Z,24
2018-08-28T01:20:19.613Z,24
2018-08-28T01:21:09.917Z,24
2018-08-28T01:22:00.047Z,24
2018-08-28T01:22:49.768Z,24
2018-08-28T01:23:39.900Z,24
2018-08-28T01:24:30.185Z,24
2018-08-28T01:25:19.975Z,24
2018-08-28T01:26:10.308Z,24
2018-08-28T01:27:00.877Z,24
2018-08-28T01:27:50.462Z,24
2018-08-28T01:28:40.505Z,24
2018-08-28T01:29:30.017Z,24
2018-08-28T01:30:20.335Z,24
2018-08-28T01:31:10.705Z,24
2018-08-28T01:32:00.479Z,24
2018-08-28T01:32:50.822Z,24
2018-08-28T01:33:40.605Z,24
2018-08-28T01:34:30.689Z,24
2018-08-28T01:35:20.732Z,24.1
2018-08-28T01:36:10.797Z,24.1
2018-08-28T01:37:00.627Z,24
2018-08-28T01:37:50.317Z,24
2018-08-28T01:38:40.662Z,24
2018-08-28T01:39:31.094Z,24
2018-08-28T01:40:21.147Z,24
2018-08-28T01:41:11.214Z,24
2018-08-28T01:42:01.259Z,24
2018-08-28T01:42:51.390Z,24
2018-08-28T01:43:41.669Z,24.1
2018-08-28T01:44:31.184Z,24
2018-08-28T01:45:21.209Z,24
2018-08-28T01:46:11.285Z,24
2018-08-28T01:47:00.824Z,24
2018-08-28T01:47:52.169Z,24
2018-08-28T01:48:41.771Z,24
2018-08-28T01:49:31.517Z,24
2018-08-28T01:50:21.343Z,24
2018-08-28T01:51:12.266Z,24
2018-08-28T01:52:02.321Z,24.1
2018-08-28T01:52:51.864Z,24
2018-08-28T01:53:42.165Z,24
2018-08-28T01:54:31.417Z,24
2018-08-28T01:55:21.703Z,24
2018-08-28T01:56:12.619Z,24
2018-08-28T01:57:02.146Z,24
2018-08-28T01:57:53.269Z,24
2018-08-28T01:58:42.515Z,24
2018-08-28T01:59:32.324Z,24
2018-08-28T02:00:22.948Z,24
2018-08-28T02:01:13.023Z,24
2018-08-28T02:02:03.081Z,24.1
2018-08-28T02:02:52.851Z,24
2018-08-28T02:03:42.941Z,24
2018-08-28T02:04:32.986Z,24
2018-08-28T02:05:23.113Z,24
2018-08-28T02:06:13.444Z,24
2018-08-28T02:07:03.185Z,24.1
2018-08-28T02:07:53.276Z,24
2018-08-28T02:08:43.305Z,24
2018-08-28T02:09:33.080Z,24
2018-08-28T02:10:23.916Z,24
2018-08-28T02:11:13.476Z,24
2018-08-28T02:12:02.702Z,24
2018-08-28T02:12:53.895Z,24.1
2018-08-28T02:13:44.237Z,24.1
2018-08-28T02:14:33.158Z,24
2018-08-28T02:15:23.252Z,24.1
2018-08-28T02:16:14.194Z,24
2018-08-28T02:17:03.679Z,24.1
2018-08-28T02:17:54.017Z,24
2018-08-28T02:18:44.052Z,24
2018-08-28T02:19:33.885Z,24.1
2018-08-28T02:20:24.174Z,24.1
2018-08-28T02:21:14.257Z,24
2018-08-28T02:22:04.335Z,24.1
2018-08-28T02:22:54.110Z,24.1
2018-08-28T02:23:44.552Z,24
2018-08-28T02:24:34.510Z,24
2018-08-28T02:25:24.592Z,24.1
2018-08-28T02:26:14.084Z,24.1
2018-08-28T02:27:05.009Z,24.1
2018-08-28T02:27:54.794Z,24.1
2018-08-28T02:28:45.115Z,24.1
2018-08-28T02:29:34.911Z,24
2018-08-28T02:30:25.305Z,24.1
2018-08-28T02:31:14.757Z,24.1
2018-08-28T02:32:05.634Z,24
2018-08-28T02:32:54.320Z,24.1
2018-08-28T02:33:47.420Z,24.1
2018-08-28T02:34:35.598Z,24.1
2018-08-28T02:35:25.346Z,24.1
2018-08-28T02:36:15.711Z,24.1
2018-08-28T02:37:05.505Z,24.1
2018-08-28T02:37:55.849Z,24.1
2018-08-28T02:38:46.183Z,24.1
2018-08-28T02:39:35.439Z,24.1
2018-08-28T02:40:25.732Z,24.1
2018-08-28T02:41:16.075Z,24.1
2018-08-28T02:42:06.192Z,24
2018-08-28T02:42:56.262Z,24.1
2018-08-28T02:43:45.426Z,24.1
2018-08-28T02:44:36.071Z,24.1
2018-08-28T02:45:26.145Z,24.1
2018-08-28T02:46:15.339Z,24.1
2018-08-28T02:47:05.700Z,24.1
2018-08-28T02:47:56.038Z,24.1
2018-08-28T02:48:46.126Z,24
2018-08-28T02:49:35.860Z,24.1
2018-08-28T02:50:26.460Z,24.1
2018-08-28T02:51:16.546Z,24.1
2018-08-28T02:52:06.348Z,24.1
2018-08-28T02:52:57.285Z,24.1
2018-08-28T02:53:47.103Z,24.1
2018-08-28T02:54:36.601Z,24.1
2018-08-28T02:55:25.450Z,24
2018-08-28T02:56:16.594Z,24.1
2018-08-28T02:57:07.010Z,24.1
2018-08-28T02:57:57.079Z,24.1
2018-08-28T02:58:47.175Z,24.1
2018-08-28T02:59:36.963Z,24.1
2018-08-28T03:00:27.238Z,24.1
2018-08-28T03:01:17.283Z,24.1
2018-08-28T03:02:07.155Z,24.1
2018-08-28T03:02:58.407Z,24.1
2018-08-28T03:03:47.557Z,24.1
2018-08-28T03:04:37.034Z,24.1
2018-08-28T03:05:28.225Z,24.1
2018-08-28T03:06:17.941Z,24.1
2018-08-28T03:07:08.081Z,24.1
2018-08-28T03:07:58.196Z,24.1
2018-08-28T03:08:47.907Z,24.1
2018-08-28T03:09:37.984Z,24.1
2018-08-28T03:10:28.093Z,24.1
2018-08-28T03:11:18.778Z,24.1
2018-08-28T03:12:08.264Z,24.1
2018-08-28T03:12:58.294Z,24.1
2018-08-28T03:13:48.620Z,24.1
2018-08-28T03:14:38.926Z,24.1
2018-08-28T03:15:29.575Z,24.1
2018-08-28T03:16:18.821Z,24.1
2018-08-28T03:17:07.994Z,24.1
2018-08-28T03:17:58.674Z,24.1
2018-08-28T03:18:48.404Z,24.1
2018-08-28T03:19:39.019Z,24.1
2018-08-28T03:20:28.521Z,24.1
2018-08-28T03:21:19.441Z,24.1
2018-08-28T03:22:08.941Z,24.1
2018-08-28T03:22:59.312Z,24.1
2018-08-28T03:23:49.099Z,24.1
2018-08-28T03:24:38.888Z,24.1
2018-08-28T03:25:30.138Z,24.1
2018-08-28T03:26:19.287Z,24.1
2018-08-28T03:27:09.053Z,24.1
2018-08-28T03:27:59.127Z,24.1
2018-08-28T03:28:49.148Z,24.1
2018-08-28T03:29:39.790Z,24.1
2018-08-28T03:30:29.708Z,24.1
2018-08-28T03:31:19.365Z,24.1
2018-08-28T03:32:09.775Z,24.1
2018-08-28T03:32:59.465Z,24.1
2018-08-28T03:33:50.120Z,24.1
2018-08-28T03:34:39.295Z,24.1
2018-08-28T03:35:29.933Z,24.2
2018-08-28T03:36:19.990Z,24.2
2018-08-28T03:37:09.811Z,24.3
2018-08-28T03:38:00.454Z,24.3
2018-08-28T03:38:50.513Z,24.3
2018-08-28T03:39:40.585Z,24.3
2018-08-28T03:40:30.680Z,24.3
2018-08-28T03:41:19.845Z,24.3
2018-08-28T03:42:10.187Z,24.3
2018-08-28T03:43:00.538Z,24.3
2018-08-28T03:43:50.898Z,24.3
2018-08-28T03:44:41.294Z,24.4
2018-08-28T03:45:31.080Z,24.4
2018-08-28T03:46:21.083Z,24.4
2018-08-28T03:47:11.145Z,24.4
2018-08-28T03:48:00.110Z,24.4
2018-08-28T03:48:50.990Z,24.4
2018-08-28T03:49:41.339Z,24.4
2018-08-28T03:50:30.895Z,24.4
2018-08-28T03:51:21.249Z,24.4
2018-08-28T03:52:11.264Z,24.3
2018-08-28T03:53:01.308Z,24.3
2018-08-28T03:53:50.931Z,24.4
2018-08-28T03:54:41.710Z,24.4
2018-08-28T03:55:32.422Z,24.4
2018-08-28T03:56:20.981Z,24.4
2018-08-28T03:57:11.869Z,24.4
2018-08-28T03:58:01.973Z,24.4
2018-08-28T03:58:51.189Z,24.4
2018-08-28T03:59:41.262Z,24.4
2018-08-28T04:00:31.293Z,24.4
2018-08-28T04:01:22.151Z,24.4
2018-08-28T04:02:11.137Z,24.4
2018-08-28T04:03:02.353Z,24.4
2018-08-28T04:03:52.764Z,24.4
2018-08-28T04:04:42.241Z,24.4
2018-08-28T04:05:32.261Z,24.4
2018-08-28T04:06:22.874Z,24.4
2018-08-28T04:07:12.135Z,24.4
2018-08-28T04:08:02.491Z,24.4
2018-08-28T04:08:52.517Z,24.4
2018-08-28T04:09:42.613Z,24.4
2018-08-28T04:10:32.366Z,24.4
2018-08-28T04:11:22.438Z,24.4
2018-08-28T04:12:12.776Z,24.4
2018-08-28T04:13:02.583Z,24.4
2018-08-28T04:13:53.428Z,24.4
2018-08-28T04:14:43.271Z,24.4
2018-08-28T04:15:33.348Z,24.4
2018-08-28T04:16:23.653Z,24.4
2018-08-28T04:17:14.519Z,24.4
2018-08-28T04:18:03.555Z,24.4
2018-08-28T04:18:53.643Z,24.4
2018-08-28T04:19:43.655Z,24.3
2018-08-28T04:20:33.716Z,24.3
2018-08-28T04:21:24.001Z,24.3
2018-08-28T04:22:13.841Z,24.3
2018-08-28T04:23:03.913Z,24.3
2018-08-28T04:23:53.722Z,24.3
2018-08-28T04:24:44.030Z,24.3
2018-08-28T04:25:34.103Z,24.3
2018-08-28T04:26:24.161Z,24.3
2018-08-28T04:27:14.220Z,24.3
2018-08-28T04:28:04.335Z,24.3
2018-08-28T04:28:54.413Z,24.3
2018-08-28T04:29:43.280Z,24.3
2018-08-28T04:30:35.427Z,24.3
2018-08-28T04:31:24.285Z,24.3
2018-08-28T04:32:13.484Z,24.3
2018-08-28T04:33:04.628Z,24.3
2018-08-28T04:33:54.415Z,24.2
2018-08-28T04:34:44.797Z,24.2
2018-08-28T04:35:34.287Z,24.2
2018-08-28T04:36:24.328Z,24.2
2018-08-28T04:37:14.765Z,24.2
2018-08-28T04:38:05.028Z,24.2
2018-08-28T04:38:55.135Z,24.2
2018-08-28T04:39:45.165Z,24.2
2018-08-28T04:40:35.263Z,24.2
2018-08-28T04:41:25.260Z,24.2
2018-08-28T04:42:15.367Z,24.2
2018-08-28T05:00:19.267Z,24
2018-08-28T05:01:09.962Z,24.1
2018-08-28T05:02:00.184Z,24.1
2018-08-28T05:02:50.318Z,24.1
2018-08-28T05:03:40.662Z,24.1
2018-08-28T05:04:30.547Z,24
2018-08-28T05:05:21.024Z,24.1
2018-08-28T05:06:10.002Z,24
2018-08-28T05:07:00.593Z,24
2018-08-28T05:07:50.962Z,24
2018-08-28T05:08:40.749Z,24
2018-08-28T05:09:30.537Z,24
2018-08-28T05:10:21.224Z,24.1
2018-08-28T05:11:11.555Z,24.1
2018-08-28T05:12:01.484Z,24.1
2018-08-28T05:12:51.158Z,24.1
2018-08-28T05:13:41.444Z,24.1
2018-08-28T05:14:31.493Z,24.1
2018-08-28T05:15:21.522Z,24.1
2018-08-28T05:16:11.886Z,24.1
2018-08-28T05:17:01.244Z,24.1
2018-08-28T05:17:51.811Z,24.1
2018-08-28T05:18:41.236Z,24.1
2018-08-28T05:19:32.671Z,24.1
2018-08-28T05:20:21.618Z,24.1
2018-08-28T05:21:12.243Z,24.1
2018-08-28T05:22:01.734Z,24.2
2018-08-28T05:22:52.118Z,24.2
2018-08-28T05:23:42.173Z,24.2
2018-08-28T05:24:31.671Z,24.2
2018-08-28T05:25:22.299Z,24.2
2018-08-28T05:26:12.095Z,24.2
2018-08-28T05:27:02.143Z,24.2
2018-08-28T05:27:52.483Z,24.2
2018-08-28T05:28:42.585Z,24.1
2018-08-28T05:29:32.615Z,24.1
2018-08-28T05:30:23.129Z,24.1
2018-08-28T05:31:12.732Z,24.1
2018-08-28T05:32:02.850Z,24.2
2018-08-28T05:32:52.573Z,24.1
2018-08-28T05:33:42.381Z,24.1
2018-08-28T05:34:32.752Z,24.1
2018-08-28T05:35:22.763Z,24.1
2018-08-28T05:36:13.399Z,24.1
2018-08-28T05:37:02.437Z,24.1
2018-08-28T05:37:52.749Z,24.1
2018-08-28T05:38:42.778Z,24.1
2018-08-28T05:39:32.327Z,24.1
2018-08-28T05:40:22.882Z,24.1
2018-08-28T05:41:12.632Z,24.1
2018-08-28T05:42:03.264Z,24.1
2018-08-28T05:42:53.385Z,24.1
2018-08-28T05:43:43.437Z,24.1
2018-08-28T05:44:33.560Z,24.1
2018-08-28T05:45:23.514Z,24.1
2018-08-28T05:46:14.146Z,24.1
2018-08-28T05:47:03.437Z,24.1
2018-08-28T05:47:54.089Z,24.1
2018-08-28T05:48:43.821Z,24.1
2018-08-28T05:49:34.845Z,24.1
2018-08-28T05:50:24.519Z,24.1
2018-08-28T05:51:14.009Z,24.1
2018-08-28T05:52:04.072Z,24
2018-08-28T05:52:54.125Z,24.1
2018-08-28T05:53:44.505Z,24
2018-08-28T05:54:34.573Z,24.1
2018-08-28T05:55:23.772Z,24
2018-08-28T05:56:16.482Z,24
2018-08-28T05:57:04.738Z,24
2018-08-28T05:57:54.519Z,24
2018-08-28T05:58:44.431Z,24
2018-08-28T05:59:34.929Z,24
2018-08-28T06:00:24.146Z,24
2018-08-28T06:01:14.791Z,24
2018-08-28T06:02:05.126Z,24
2018-08-28T06:02:55.367Z,24
2018-08-28T06:03:44.408Z,24
2018-08-28T06:04:35.089Z,24
2018-08-28T06:05:25.106Z,24
2018-08-28T06:06:14.566Z,24
2018-08-28T06:07:05.208Z,24
2018-08-28T06:07:55.283Z,24
2018-08-28T06:08:46.109Z,24
2018-08-28T06:09:35.136Z,24
2018-08-28T06:10:25.455Z,23.9
2018-08-28T06:11:15.780Z,23.9
2018-08-28T06:12:05.590Z,23.9
2018-08-28T06:12:55.947Z,23.9
2018-08-28T06:13:45.975Z,23.9
2018-08-28T06:14:35.930Z,23.9
2018-08-28T06:15:25.567Z,23.9
2018-08-28T06:16:15.623Z,24.8
2018-08-28T06:17:05.709Z,24.6
2018-08-28T06:17:55.748Z,27.5
2018-08-28T06:18:46.478Z,28.6
2018-08-28T06:19:35.597Z,28.4
2018-08-28T06:20:26.522Z,27.5
2018-08-28T06:21:16.639Z,26.7
2018-08-28T06:22:06.157Z,26.3
2018-08-28T06:22:57.232Z,26.4
2018-08-28T06:23:46.486Z,26.6
2018-08-28T06:24:36.843Z,26.8
2018-08-28T06:25:26.910Z,26.9
2018-08-28T06:26:16.518Z,26.9
2018-08-28T06:27:06.304Z,26.8
2018-08-28T06:27:57.185Z,26.7
2018-08-28T06:28:47.219Z,26.7
2018-08-28T06:29:36.967Z,26.7
2018-08-28T06:30:27.304Z,26.7
2018-08-28T06:31:16.862Z,26.8
2018-08-28T06:32:07.459Z,26.8
2018-08-28T06:32:57.510Z,26.8
2018-08-28T06:33:47.353Z,26.8
2018-08-28T06:34:37.662Z,26.8
2018-08-28T06:35:27.405Z,26.8
2018-08-28T06:36:17.453Z,26.8
2018-08-28T06:37:07.566Z,26.9
2018-08-28T06:37:57.874Z,26.9
2018-08-28T06:38:47.913Z,26.9
2018-08-28T06:39:37.466Z,26.9
2018-08-28T06:40:28.034Z,27
2018-08-28T06:41:17.256Z,27
2018-08-28T06:42:07.332Z,27
2018-08-28T06:42:57.916Z,27.1
2018-08-28T06:43:48.282Z,27.1
2018-08-28T06:44:38.692Z,27.1
2018-08-28T06:45:26.989Z,27.1
2018-08-28T06:46:17.641Z,27.1
2018-08-28T06:47:08.561Z,27.1
2018-08-28T06:47:58.060Z,27.1
2018-08-28T06:48:48.458Z,27.2
2018-08-28T06:49:39.926Z,27.1
2018-08-28T06:50:28.257Z,27.2
2018-08-28T06:51:18.297Z,27.2
2018-08-28T06:52:08.666Z,27.2
2018-08-28T06:52:58.773Z,27.2
2018-08-28T06:53:48.293Z,27.2
2018-08-28T06:54:38.908Z,27.3
2018-08-28T06:55:28.341Z,27.3
2018-08-28T06:56:19.257Z,27.3
2018-08-28T06:57:09.060Z,27.3
2018-08-28T06:57:59.633Z,27.3
2018-08-28T06:58:49.173Z,27.4
2018-08-28T06:59:39.773Z,27.4
2018-08-28T07:00:29.579Z,27.4
2018-08-28T07:01:19.645Z,27.4
2018-08-28T07:02:09.436Z,27.4
2018-08-28T07:02:59.790Z,27.5
2018-08-28T07:03:50.379Z,27.6
2018-08-28T07:04:39.863Z,27.6
2018-08-28T07:05:29.917Z,27.7
2018-08-28T07:06:19.550Z,27.8
2018-08-28T07:07:09.605Z,27.8
2018-08-28T07:08:01.119Z,27.8
2018-08-28T07:08:49.947Z,27.8
2018-08-28T07:09:40.340Z,27.7
2018-08-28T07:10:30.840Z,27.7
2018-08-28T07:11:19.932Z,27.6
2018-08-28T07:12:10.214Z,27.4
2018-08-28T07:13:00.511Z,27.4
2018-08-28T07:13:50.615Z,27.4
2018-08-28T07:14:40.362Z,27.4
2018-08-28T07:15:30.809Z,27.3
2018-08-28T07:16:20.209Z,27.4
2018-08-28T07:17:10.577Z,27.3
2018-08-28T07:18:00.922Z,27.3
2018-08-28T07:18:52.346Z,27.3
2018-08-28T07:19:41.042Z,27.3
2018-08-28T07:20:30.512Z,27.4
2018-08-28T07:21:20.579Z,27.4
2018-08-28T07:22:10.677Z,27.4
2018-08-28T07:23:01.393Z,27.4
2018-08-28T07:23:51.109Z,27.4
2018-08-28T07:24:40.876Z,27.4
2018-08-28T07:25:31.365Z,27.4
2018-08-28T07:26:21.582Z,27.4
2018-08-28T07:27:11.091Z,27.4
2018-08-28T07:28:00.829Z,27.4
2018-08-28T07:28:51.458Z,27.4
2018-08-28T07:29:41.276Z,27.4
2018-08-28T07:30:31.121Z,27.4
2018-08-28T07:31:21.706Z,27.4
2018-08-28T07:32:12.063Z,27.4
2018-08-28T07:33:01.790Z,27.4
2018-08-28T07:33:52.126Z,27.4
2018-08-28T07:34:42.222Z,27.4
2018-08-28T07:35:32.286Z,27.4
2018-08-28T07:36:22.343Z,27.4
2018-08-28T07:37:12.135Z,27.3
2018-08-28T07:38:02.186Z,27.3
2018-08-28T07:38:52.518Z,27.3
2018-08-28T07:39:42.583Z,27.3
2018-08-28T07:40:32.655Z,27.3
2018-08-28T07:41:22.987Z,27.3
2018-08-28T07:42:11.673Z,27.3
2018-08-28T07:43:03.501Z,27.3
2018-08-28T07:43:52.968Z,27.3
2018-08-28T07:44:42.966Z,27.3
2018-08-28T07:45:32.195Z,27.3
2018-08-28T07:46:23.045Z,27.3
2018-08-28T07:47:13.163Z,27.2
2018-08-28T07:48:02.955Z,27.2
2018-08-28T07:48:53.120Z,27.1
2018-08-28T07:49:42.773Z,27.1
2018-08-28T07:50:33.138Z,27.1
2018-08-28T07:51:22.858Z,27.1
2018-08-28T07:52:12.391Z,26.9
2018-08-28T07:53:03.660Z,26.8
2018-08-28T07:53:54.414Z,26.8
2018-08-28T07:54:42.895Z,26.7
2018-08-28T07:55:33.561Z,26.7
2018-08-28T07:56:23.898Z,26.7
2018-08-28T07:57:13.960Z,26.7
2018-08-28T07:58:03.170Z,26.7
2018-08-28T07:58:53.803Z,26.7
2018-08-28T07:59:42.695Z,26.6
2018-08-28T08:00:34.242Z,26.6
2018-08-28T08:01:24.401Z,26.6
2018-08-28T08:02:14.047Z,26.6
2018-08-28T08:03:03.915Z,26.6
2018-08-28T08:03:54.153Z,26.6
2018-08-28T08:04:43.647Z,26.6
2018-08-28T08:05:34.570Z,26.6
2018-08-28T08:06:23.782Z,26.6
2018-08-28T08:07:14.702Z,26.6
2018-08-28T08:08:04.750Z,26.6
2018-08-28T08:08:54.244Z,26.6
2018-08-28T08:09:44.889Z,26.6
2018-08-28T08:10:36.962Z,26.6
2018-08-28T08:11:24.739Z,26.7
2018-08-28T08:12:15.038Z,26.7
2018-08-28T08:13:04.871Z,26.7
2018-08-28T08:13:55.454Z,26.7
2018-08-28T08:14:45.258Z,26.7
2018-08-28T08:15:35.831Z,26.8
2018-08-28T08:16:24.859Z,26.8
2018-08-28T08:17:15.466Z,26.8
2018-08-28T08:18:05.544Z,26.8
2018-08-28T08:18:55.873Z,26.8
2018-08-28T08:19:45.716Z,26.8
2018-08-28T08:20:35.721Z,26.8
2018-08-28T08:21:25.793Z,26.8
2018-08-28T08:22:17.836Z,26.8
2018-08-28T08:23:05.638Z,26.9
2018-08-28T08:23:56.243Z,26.9
2018-08-28T08:24:46.093Z,26.9
2018-08-28T08:25:35.800Z,26.9
2018-08-28T08:26:25.885Z,27
2018-08-28T08:27:15.958Z,27
2018-08-28T08:28:06.938Z,27.1
2018-08-28T08:28:55.363Z,27.1
2018-08-28T08:29:46.125Z,27.2
2018-08-28T08:30:36.225Z,27.2
2018-08-28T08:31:25.957Z,27.2
2018-08-28T08:32:15.758Z,27.3
2018-08-28T08:33:06.110Z,27.3
2018-08-28T08:33:56.456Z,27.3
2018-08-28T08:34:46.842Z,27.3
2018-08-28T08:35:36.400Z,27.3
2018-08-28T08:36:26.395Z,27.4
2018-08-28T08:37:17.074Z,27.7
2018-08-28T08:38:56.870Z,28
2018-08-28T08:39:46.917Z,28.3
2018-08-28T08:40:36.524Z,28.4
2018-08-28T08:41:27.144Z,28.7
2018-08-28T08:42:16.919Z,29
2018-08-28T08:43:06.885Z,29.3
2018-08-28T08:43:57.531Z,29.5
2018-08-28T08:44:51.684Z,29.4
2018-08-28T08:45:37.433Z,28.9
2018-08-28T08:46:27.398Z,28.4
2018-08-28T08:47:17.832Z,27.9
2018-08-28T08:48:07.554Z,27.4
2018-08-28T08:48:57.174Z,27.1
2018-08-28T08:49:46.857Z,27
2018-08-28T08:50:37.454Z,26.9
2018-08-28T08:51:27.977Z,26.9
2018-08-28T08:52:17.928Z,26.9
2018-08-28T08:53:07.921Z,26.8
2018-08-28T08:53:58.059Z,26.8
2018-08-28T08:54:48.304Z,26.8
2018-08-28T08:55:37.878Z,26.8
2018-08-28T08:56:28.002Z,26.8
2018-08-28T08:57:19.368Z,26.7
2018-08-28T08:58:08.181Z,26.7
2018-08-28T09:14:46.938Z,32.1
2018-08-28T09:15:36.245Z,31.6
2018-08-28T09:16:25.718Z,31.1
2018-08-28T09:17:16.050Z,30.8
2018-08-28T09:18:05.563Z,30.4
2018-08-28T09:18:56.153Z,30.2
2018-08-28T09:19:47.040Z,30
2018-08-28T09:20:36.577Z,29.8
2018-08-28T09:21:26.652Z,36.8
2018-08-28T09:22:16.457Z,38.4
2018-08-28T09:23:07.075Z,36.8
2018-08-28T09:23:56.610Z,34.4
2018-08-28T09:24:47.528Z,33.2
2018-08-28T09:25:36.719Z,32.4
2018-08-28T09:26:26.484Z,31.9
2018-08-28T09:27:15.679Z,33.8
2018-08-28T09:28:07.147Z,39.3
2018-08-28T09:28:56.882Z,39.4
2018-08-28T09:29:46.722Z,37.1
2018-08-28T09:30:36.785Z,34.5
2018-08-28T09:31:27.901Z,33.2
2018-08-28T09:32:17.373Z,33.4
2018-08-28T09:33:07.582Z,40.2
2018-08-28T09:33:57.762Z,40.7
2018-08-28T09:34:47.687Z,38.3
2018-08-28T09:35:37.751Z,35.8
2018-08-28T09:36:27.787Z,34.4
2018-08-28T09:37:17.607Z,33.6
2018-08-28T09:38:08.483Z,33.1
2018-08-28T09:38:59.215Z,32.9
2018-08-28T09:39:48.112Z,40.8
2018-08-28T09:40:38.131Z,41.9
2018-08-28T09:41:27.911Z,39.6
2018-08-28T09:42:18.276Z,37.3
2018-08-28T09:43:08.618Z,36.1
2018-08-28T09:43:59.974Z,35.3
2018-08-28T09:44:48.230Z,34.6
2018-08-28T09:45:39.034Z,34.1
2018-08-28T09:46:28.011Z,33.7
2018-08-28T09:47:18.343Z,37.9
2018-08-28T09:48:10.561Z,43.3
2018-08-28T09:48:58.241Z,41.2
2018-08-28T09:49:49.014Z,39.6
2018-08-28T09:50:40.171Z,38.1
2018-08-28T09:51:28.214Z,37.1
2018-08-28T09:52:19.043Z,36.3
2018-08-28T09:53:08.564Z,35.8
2018-08-28T09:53:58.880Z,35.3
2018-08-28T09:54:49.223Z,34.9
2018-08-28T09:55:40.084Z,35.8
2018-08-28T09:56:30.119Z,43.4
2018-08-28T09:57:19.161Z,43.7
2018-08-28T09:58:08.731Z,41.5
2018-08-28T09:58:59.303Z,39.5
2018-08-28T09:59:49.428Z,38.3
2018-08-28T10:00:39.405Z,37.6
2018-08-28T10:01:30.280Z,36.9
2018-08-28T10:02:19.545Z,36.3
2018-08-28T10:03:09.318Z,35.9
2018-08-28T10:04:00.207Z,35.8
2018-08-28T10:04:51.684Z,44.1
2018-08-28T10:05:39.781Z,45.4
2018-08-28T10:06:30.076Z,43.4
2018-08-28T10:07:19.599Z,41.5
2018-08-28T10:08:10.554Z,40.3
2018-08-28T10:09:00.336Z,39.4
2018-08-28T10:09:50.673Z,38.7
2018-08-28T10:10:40.162Z,38.1
2018-08-28T10:11:30.528Z,37.6
2018-08-28T10:12:20.882Z,37.3
2018-08-28T10:13:10.635Z,36.9
2018-08-28T10:14:00.398Z,42
2018-08-28T10:14:50.763Z,46.6
2018-08-28T10:15:40.867Z,49
2018-08-28T10:16:45.606Z,50.3
2018-08-28T10:17:28.651Z,50.9
2018-08-28T10:18:33.505Z,50.9
2018-08-28T10:19:07.459Z,51.3
2018-08-28T10:19:56.514Z,51.4
2018-08-28T10:20:48.154Z,51.7
2018-08-28T10:21:37.160Z,51.8
2018-08-28T10:22:27.779Z,52
2018-08-28T10:23:17.249Z,52.1
2018-08-28T10:24:07.327Z,52.3
2018-08-28T10:24:57.904Z,52.5
2018-08-28T10:25:47.682Z,52.7
2018-08-28T10:26:37.752Z,52.8
2018-08-28T10:27:28.085Z,53
2018-08-28T10:28:17.912Z,53.3
2018-08-28T10:29:07.709Z,53.5
2018-08-28T10:29:56.885Z,53.5
2018-08-28T10:30:47.238Z,53.4
2018-08-28T10:32:26.081Z,53.3
2018-08-28T10:32:37.737Z,53.3
2018-08-28T10:33:27.477Z,53.4
2018-08-28T10:34:18.133Z,53.6
2018-08-28T10:35:07.621Z,54.1
2018-08-28T10:35:58.370Z,54.3
2018-08-28T10:36:48.043Z,54.4
2018-08-28T10:37:38.367Z,54.6
2018-08-28T10:38:28.226Z,54.6
2018-08-28T10:39:17.986Z,54.1
2018-08-28T10:40:08.329Z,53.9
2018-08-28T10:40:58.369Z,54
2018-08-28T10:41:48.464Z,54.1
2018-08-28T10:42:38.544Z,54.2
2018-08-28T10:43:28.399Z,54.4
2018-08-28T10:44:18.710Z,54.8
2018-08-28T10:45:08.422Z,55.2
2018-08-28T10:45:58.835Z,55.5
2018-08-28T10:46:50.255Z,55.8
2018-08-28T10:47:38.914Z,56.1
2018-08-28T10:48:28.775Z,56.3
2018-08-28T10:49:19.064Z,56.4
2018-08-28T10:50:08.645Z,56.7
2018-08-28T10:50:59.709Z,56.8
2018-08-28T10:51:49.207Z,57
2018-08-28T10:52:38.753Z,57.2
2018-08-28T10:53:28.826Z,57.3
2018-08-28T10:54:18.681Z,57.4
2018-08-28T10:55:09.519Z,57.3
2018-08-28T10:55:59.103Z,57.2
2018-08-28T10:56:49.613Z,57.1
2018-08-28T10:57:39.999Z,57.2
2018-08-28T10:58:29.272Z,57.2
2018-08-28T10:59:19.218Z,57.3
2018-08-28T11:00:09.936Z,57.3
2018-08-28T11:00:59.611Z,57.4
2018-08-28T11:01:49.976Z,57.5
2018-08-28T11:02:40.069Z,57.6
2018-08-28T11:04:19.503Z,57.9
2018-08-28T11:05:10.280Z,58.1
2018-08-28T11:06:00.053Z,58.3
2018-08-28T11:06:50.135Z,58.5
2018-08-28T11:07:40.478Z,58.6
2018-08-28T11:08:29.997Z,59
2018-08-28T11:09:20.623Z,59.3
2018-08-28T11:10:09.535Z,59.6
2018-08-28T11:11:01.030Z,59.9
2018-08-28T11:11:50.641Z,60.1
2018-08-28T11:12:41.160Z,60.3
2018-08-28T11:13:30.683Z,60.4
2018-08-28T11:14:20.749Z,60.4
2018-08-28T11:15:10.583Z,60.6
2018-08-28T11:16:01.484Z,60.8
2018-08-28T11:16:51.221Z,61
2018-08-28T11:17:41.541Z,61.1
2018-08-28T11:18:31.312Z,61.3
2018-08-28T11:19:21.217Z,61.4
2018-08-28T11:20:11.725Z,61.4
2018-08-28T11:21:01.250Z,61.6
2018-08-28T11:21:51.382Z,61.6
2018-08-28T11:22:41.708Z,61.7
2018-08-28T11:23:32.269Z,61.8
2018-08-28T11:24:22.049Z,61.9
2018-08-28T11:25:11.560Z,61.9
2018-08-28T11:26:01.900Z,61.9
2018-08-28T11:26:51.391Z,62.1
2018-08-28T11:27:42.572Z,62.1
2018-08-28T11:28:31.799Z,62.2
2018-08-28T11:29:22.169Z,62.1
2018-08-28T11:30:12.306Z,61.9
2018-08-28T11:31:01.699Z,61.6
2018-08-28T11:31:51.804Z,61.4
2018-08-28T11:32:42.469Z,61.1
2018-08-28T11:33:32.769Z,61
2018-08-28T11:34:22.544Z,60.9
2018-08-28T11:35:13.174Z,60.8
2018-08-28T11:36:02.969Z,60.7
2018-08-28T11:36:52.746Z,60.8
2018-08-28T11:37:43.358Z,61.1
2018-08-28T11:38:33.158Z,61.2
2018-08-28T11:39:22.668Z,61.3
2018-08-28T11:40:13.234Z,61.5
2018-08-28T11:41:02.491Z,61.6
2018-08-28T11:41:53.433Z,61.8
2018-08-28T11:42:43.513Z,61.8
2018-08-28T11:43:33.602Z,61.8
2018-08-28T11:44:23.624Z,61.8
2018-08-28T11:45:13.659Z,61.8
2018-08-28T11:46:02.911Z,61.6
2018-08-28T11:46:53.523Z,61.5
2018-08-28T11:47:43.086Z,61.6
2018-08-28T11:48:33.926Z,61.6
2018-08-28T11:49:24.015Z,61.4
2018-08-28T11:50:13.747Z,61.3
2018-08-28T11:51:04.151Z,61.2
2018-08-28T11:51:53.636Z,61.1
2018-08-28T11:52:44.215Z,61.3
2018-08-28T11:53:33.753Z,61.6
2018-08-28T11:54:24.128Z,61.8
2018-08-28T11:55:14.473Z,61.9
2018-08-28T11:56:04.504Z,62
2018-08-28T11:56:54.378Z,62.1
2018-08-28T11:57:44.378Z,62.2
2018-08-28T11:58:34.450Z,62.1
2018-08-28T11:59:23.662Z,61.9
2018-08-28T12:00:15.077Z,62.1
2018-08-28T12:01:04.045Z,62.3
2018-08-28T12:01:54.530Z,62.4
2018-08-28T12:02:45.017Z,62.5
2018-08-28T12:03:34.277Z,62.6
2018-08-28T12:04:24.894Z,62.6
2018-08-28T12:05:16.677Z,62.6
2018-08-28T12:06:04.752Z,62.5
2018-08-28T12:06:56.513Z,62.4
2018-08-28T12:07:46.640Z,62.3
2018-08-28T12:08:35.282Z,62.3
2018-08-28T12:09:24.762Z,62.3
2018-08-28T12:10:15.100Z,62.1
2018-08-28T12:11:05.730Z,62.1
2018-08-28T12:11:54.697Z,62.3
2018-08-28T12:12:45.235Z,62.6
2018-08-28T12:13:35.639Z,62.8
2018-08-28T12:14:25.438Z,62.9
2018-08-28T12:15:15.192Z,62.9
2018-08-28T12:16:05.537Z,63.1
2018-08-28T12:16:56.149Z,63.1
2018-08-28T12:17:46.186Z,63.2
2018-08-28T12:18:35.767Z,63.3
2018-08-28T12:19:25.327Z,63.4
2018-08-28T12:20:15.999Z,63.4